KJRB/JRB METAR and TAF weather

Enter ICAO airport designator
Station Type Date Time Source
KJRB METAR 2020/01/21 08:56 UTC NOAA

KJRB 210856Z AUTO VRB06KT CLR M04/M09 A3042 RMK AO2 SLP300 T10441094 51007 PWINO FZRANO


Station Type Date Time Source
KJRB Decoded METAR 2020/01/21 08:56 UTC NOAA

Station name not available
Jan 21, 2020 - 03:56 AM EST / 2020.01.21 0856 UTC
Wind: Variable at 7 MPH (6 KT):0
Sky conditions: clear
Temperature: 24.1 F (-4.4 C)
Windchill: 15 F (-9 C):1
Dew Point: 15.1 F (-9.4 C)
Relative Humidity: 68%
Pressure (altimeter): 30.42 in. Hg (1030 hPa)
Pressure tendency: 0.02 inches (0.7 hPa) higher than three hours ago
ob: KJRB 210856Z AUTO VRB06KT CLR M04/M09 A3042 RMK AO2 SLP300 T10441094 51007 PWINO FZRANO
cycle: 9

Station Type Date Time Source
KJRB TAF UTC NOAA

Error!

Example: see airport list